sensor_id;sensor_type;location;lat;lon;timestamp;P1;durP1;ratioP1;P2;durP2;ratioP2
3918;SDS011;1974;48.670;8.994;2023-06-05T00:00:55;1.63;;;0.70;;
3918;SDS011;1974;48.670;8.994;2023-06-05T00:03:22;0.80;;;0.63;;
3918;SDS011;1974;48.670;8.994;2023-06-05T00:05:52;1.37;;;1.17;;
3918;SDS011;1974;48.670;8.994;2023-06-05T00:08:18;1.47;;;0.90;;
3918;SDS011;1974;48.670;8.994;2023-06-05T00:10:45;2.30;;;0.70;;
3918;SDS011;1974;48.670;8.994;2023-06-05T00:13:12;1.47;;;1.00;;
3918;SDS011;1974;48.670;8.994;2023-06-05T00:15:39;3.27;;;1.03;;
3918;SDS011;1974;48.670;8.994;2023-06-05T00:18:07;1.83;;;0.90;;
3918;SDS011;1974;48.670;8.994;2023-06-05T00:20:34;0.90;;;0.80;;
3918;SDS011;1974;48.670;8.994;2023-06-05T00:23:01;1.40;;;0.90;;
3918;SDS011;1974;48.670;8.994;2023-06-05T00:25:28;1.93;;;0.80;;
3918;SDS011;1974;48.670;8.994;2023-06-05T00:27:54;2.30;;;0.60;;
3918;SDS011;1974;48.670;8.994;2023-06-05T00:30:21;1.53;;;0.70;;
3918;SDS011;1974;48.670;8.994;2023-06-05T00:32:48;0.80;;;0.80;;
3918;SDS011;1974;48.670;8.994;2023-06-05T00:35:16;1.40;;;0.67;;
3918;SDS011;1974;48.670;8.994;2023-06-05T00:37:43;1.53;;;0.80;;
3918;SDS011;1974;48.670;8.994;2023-06-05T00:40:11;0.80;;;0.70;;
3918;SDS011;1974;48.670;8.994;2023-06-05T00:42:39;1.03;;;0.90;;
3918;SDS011;1974;48.670;8.994;2023-06-05T00:45:06;0.77;;;0.60;;
3918;SDS011;1974;48.670;8.994;2023-06-05T00:47:33;3.33;;;0.80;;
3918;SDS011;1974;48.670;8.994;2023-06-05T00:50:01;1.87;;;0.77;;
3918;SDS011;1974;48.670;8.994;2023-06-05T00:52:30;1.23;;;0.90;;
3918;SDS011;1974;48.670;8.994;2023-06-05T00:54:59;1.23;;;0.93;;
3918;SDS011;1974;48.670;8.994;2023-06-05T00:57:27;1.47;;;0.80;;
3918;SDS011;1974;48.670;8.994;2023-06-05T00:59:54;1.20;;;0.77;;
3918;SDS011;1974;48.670;8.994;2023-06-05T01:02:21;1.77;;;0.70;;
3918;SDS011;1974;48.670;8.994;2023-06-05T01:04:48;1.80;;;0.70;;
3918;SDS011;1974;48.670;8.994;2023-06-05T01:07:16;4.33;;;0.60;;
3918;SDS011;1974;48.670;8.994;2023-06-05T01:09:45;1.27;;;0.60;;
3918;SDS011;1974;48.670;8.994;2023-06-05T01:12:14;0.83;;;0.60;;
3918;SDS011;1974;48.670;8.994;2023-06-05T01:14:47;1.70;;;0.93;;
3918;SDS011;1974;48.670;8.994;2023-06-05T01:17:15;0.70;;;0.67;;
3918;SDS011;1974;48.670;8.994;2023-06-05T01:19:44;0.70;;;0.70;;
3918;SDS011;1974;48.670;8.994;2023-06-05T01:22:11;1.03;;;0.80;;
3918;SDS011;1974;48.670;8.994;2023-06-05T01:24:40;1.33;;;0.77;;
3918;SDS011;1974;48.670;8.994;2023-06-05T01:27:08;0.70;;;0.60;;
3918;SDS011;1974;48.670;8.994;2023-06-05T01:29:42;3.80;;;1.20;;
3918;SDS011;1974;48.670;8.994;2023-06-05T01:32:21;1.40;;;0.70;;
3918;SDS011;1974;48.670;8.994;2023-06-05T01:35:02;1.40;;;0.70;;
3918;SDS011;1974;48.670;8.994;2023-06-05T01:37:32;0.70;;;0.70;;
3918;SDS011;1974;48.670;8.994;2023-06-05T01:40:07;0.90;;;0.70;;
3918;SDS011;1974;48.670;8.994;2023-06-05T01:42:36;1.40;;;0.80;;
3918;SDS011;1974;48.670;8.994;2023-06-05T01:45:04;6.60;;;0.97;;
3918;SDS011;1974;48.670;8.994;2023-06-05T01:47:33;1.50;;;0.80;;
3918;SDS011;1974;48.670;8.994;2023-06-05T01:50:01;1.20;;;1.10;;
3918;SDS011;1974;48.670;8.994;2023-06-05T01:52:28;0.70;;;0.70;;
3918;SDS011;1974;48.670;8.994;2023-06-05T01:54:55;0.60;;;0.50;;
3918;SDS011;1974;48.670;8.994;2023-06-05T01:57:26;0.93;;;0.50;;
3918;SDS011;1974;48.670;8.994;2023-06-05T01:59:53;1.13;;;0.97;;
3918;SDS011;1974;48.670;8.994;2023-06-05T02:02:20;0.80;;;0.73;;
3918;SDS011;1974;48.670;8.994;2023-06-05T02:04:48;0.90;;;0.60;;
3918;SDS011;1974;48.670;8.994;2023-06-05T02:07:15;0.90;;;0.87;;
3918;SDS011;1974;48.670;8.994;2023-06-05T02:09:42;1.10;;;0.67;;
3918;SDS011;1974;48.670;8.994;2023-06-05T02:12:09;0.70;;;0.60;;
3918;SDS011;1974;48.670;8.994;2023-06-05T02:14:40;1.03;;;0.83;;
3918;SDS011;1974;48.670;8.994;2023-06-05T02:17:09;1.70;;;1.10;;
3918;SDS011;1974;48.670;8.994;2023-06-05T02:19:38;1.17;;;0.80;;
3918;SDS011;1974;48.670;8.994;2023-06-05T02:22:05;1.90;;;0.80;;
3918;SDS011;1974;48.670;8.994;2023-06-05T02:24:33;1.43;;;0.90;;
3918;SDS011;1974;48.670;8.994;2023-06-05T02:27:00;2.00;;;0.80;;
3918;SDS011;1974;48.670;8.994;2023-06-05T02:29:27;1.43;;;0.70;;
3918;SDS011;1974;48.670;8.994;2023-06-05T02:31:55;0.60;;;0.60;;
3918;SDS011;1974;48.670;8.994;2023-06-05T02:34:22;1.80;;;1.10;;
3918;SDS011;1974;48.670;8.994;2023-06-05T02:36:49;2.70;;;0.70;;
3918;SDS011;1974;48.670;8.994;2023-06-05T02:39:16;1.33;;;0.80;;
3918;SDS011;1974;48.670;8.994;2023-06-05T02:41:43;0.60;;;0.60;;
3918;SDS011;1974;48.670;8.994;2023-06-05T02:44:10;1.13;;;0.90;;
3918;SDS011;1974;48.670;8.994;2023-06-05T02:46:37;0.80;;;0.80;;
3918;SDS011;1974;48.670;8.994;2023-06-05T02:49:05;2.67;;;1.30;;
3918;SDS011;1974;48.670;8.994;2023-06-05T02:51:31;1.53;;;0.80;;
3918;SDS011;1974;48.670;8.994;2023-06-05T02:53:58;0.93;;;0.60;;
3918;SDS011;1974;48.670;8.994;2023-06-05T02:56:25;1.30;;;0.80;;
3918;SDS011;1974;48.670;8.994;2023-06-05T02:58:52;0.80;;;0.70;;
3918;SDS011;1974;48.670;8.994;2023-06-05T03:01:21;2.10;;;0.93;;
3918;SDS011;1974;48.670;8.994;2023-06-05T03:03:50;1.47;;;1.10;;
3918;SDS011;1974;48.670;8.994;2023-06-05T03:06:19;0.80;;;0.80;;
3918;SDS011;1974;48.670;8.994;2023-06-05T03:08:52;0.73;;;0.73;;
3918;SDS011;1974;48.670;8.994;2023-06-05T03:11:21;1.13;;;1.00;;
3918;SDS011;1974;48.670;8.994;2023-06-05T03:13:50;0.90;;;0.70;;
3918;SDS011;1974;48.670;8.994;2023-06-05T03:16:16;1.53;;;0.90;;
3918;SDS011;1974;48.670;8.994;2023-06-05T03:18:43;0.50;;;0.50;;
3918;SDS011;1974;48.670;8.994;2023-06-05T03:21:10;1.07;;;0.90;;
3918;SDS011;1974;48.670;8.994;2023-06-05T03:23:38;0.80;;;0.70;;
3918;SDS011;1974;48.670;8.994;2023-06-05T03:26:05;1.53;;;0.60;;
3918;SDS011;1974;48.670;8.994;2023-06-05T03:28:32;1.47;;;1.00;;
3918;SDS011;1974;48.670;8.994;2023-06-05T03:30:59;2.83;;;0.90;;
3918;SDS011;1974;48.670;8.994;2023-06-05T03:33:26;1.10;;;0.77;;
3918;SDS011;1974;48.670;8.994;2023-06-05T03:35:52;1.77;;;0.80;;
3918;SDS011;1974;48.670;8.994;2023-06-05T03:38:20;2.23;;;0.80;;
3918;SDS011;1974;48.670;8.994;2023-06-05T03:40:48;2.40;;;0.60;;
3918;SDS011;1974;48.670;8.994;2023-06-05T03:43:15;2.30;;;1.10;;
3918;SDS011;1974;48.670;8.994;2023-06-05T03:45:42;8.53;;;0.90;;
3918;SDS011;1974;48.670;8.994;2023-06-05T03:48:08;0.67;;;0.50;;
3918;SDS011;1974;48.670;8.994;2023-06-05T03:50:35;0.73;;;0.70;;
3918;SDS011;1974;48.670;8.994;2023-06-05T03:53:03;0.90;;;0.80;;
3918;SDS011;1974;48.670;8.994;2023-06-05T03:55:30;0.63;;;0.63;;
3918;SDS011;1974;48.670;8.994;2023-06-05T03:58:07;1.77;;;0.60;;
3918;SDS011;1974;48.670;8.994;2023-06-05T04:00:34;2.20;;;0.90;;
3918;SDS011;1974;48.670;8.994;2023-06-05T04:03:01;1.53;;;0.67;;
3918;SDS011;1974;48.670;8.994;2023-06-05T04:05:28;15.10;;;1.37;;
3918;SDS011;1974;48.670;8.994;2023-06-05T04:07:55;0.70;;;0.60;;
3918;SDS011;1974;48.670;8.994;2023-06-05T04:10:22;0.60;;;0.53;;
3918;SDS011;1974;48.670;8.994;2023-06-05T04:12:48;0.70;;;0.70;;
3918;SDS011;1974;48.670;8.994;2023-06-05T04:15:17;1.93;;;0.60;;
3918;SDS011;1974;48.670;8.994;2023-06-05T04:17:43;0.80;;;0.80;;
3918;SDS011;1974;48.670;8.994;2023-06-05T04:20:10;0.97;;;0.90;;
3918;SDS011;1974;48.670;8.994;2023-06-05T04:22:39;0.70;;;0.70;;
3918;SDS011;1974;48.670;8.994;2023-06-05T04:25:06;0.93;;;0.83;;
3918;SDS011;1974;48.670;8.994;2023-06-05T04:27:35;0.83;;;0.83;;
3918;SDS011;1974;48.670;8.994;2023-06-05T04:30:02;0.80;;;0.80;;
3918;SDS011;1974;48.670;8.994;2023-06-05T04:32:31;2.33;;;0.97;;
3918;SDS011;1974;48.670;8.994;2023-06-05T04:34:59;1.47;;;0.83;;
3918;SDS011;1974;48.670;8.994;2023-06-05T04:37:26;0.70;;;0.70;;
3918;SDS011;1974;48.670;8.994;2023-06-05T04:39:52;1.53;;;0.97;;
3918;SDS011;1974;48.670;8.994;2023-06-05T04:42:20;2.50;;;0.73;;
3918;SDS011;1974;48.670;8.994;2023-06-05T04:44:47;0.73;;;0.73;;
3918;SDS011;1974;48.670;8.994;2023-06-05T04:47:21;0.83;;;0.80;;
3918;SDS011;1974;48.670;8.994;2023-06-05T04:49:50;0.87;;;0.87;;
3918;SDS011;1974;48.670;8.994;2023-06-05T04:52:18;1.60;;;1.13;;
3918;SDS011;1974;48.670;8.994;2023-06-05T04:54:45;1.00;;;0.90;;
3918;SDS011;1974;48.670;8.994;2023-06-05T04:57:12;1.87;;;0.90;;
3918;SDS011;1974;48.670;8.994;2023-06-05T04:59:41;1.50;;;0.70;;
3918;SDS011;1974;48.670;8.994;2023-06-05T05:02:08;1.07;;;1.00;;
3918;SDS011;1974;48.670;8.994;2023-06-05T05:04:35;2.93;;;1.30;;
3918;SDS011;1974;48.670;8.994;2023-06-05T05:07:03;0.70;;;0.63;;
3918;SDS011;1974;48.670;8.994;2023-06-05T05:09:30;1.20;;;0.77;;
3918;SDS011;1974;48.670;8.994;2023-06-05T05:11:57;1.10;;;0.90;;
3918;SDS011;1974;48.670;8.994;2023-06-05T05:14:24;2.17;;;0.70;;
3918;SDS011;1974;48.670;8.994;2023-06-05T05:16:52;1.23;;;0.73;;
3918;SDS011;1974;48.670;8.994;2023-06-05T05:19:20;1.67;;;1.47;;
3918;SDS011;1974;48.670;8.994;2023-06-05T05:21:47;1.90;;;1.70;;
3918;SDS011;1974;48.670;8.994;2023-06-05T05:24:15;2.23;;;1.30;;
3918;SDS011;1974;48.670;8.994;2023-06-05T05:26:41;1.10;;;0.80;;
3918;SDS011;1974;48.670;8.994;2023-06-05T05:29:08;13.33;;;1.10;;
3918;SDS011;1974;48.670;8.994;2023-06-05T05:31:35;0.83;;;0.80;;
3918;SDS011;1974;48.670;8.994;2023-06-05T05:34:02;3.37;;;1.37;;
3918;SDS011;1974;48.670;8.994;2023-06-05T05:36:29;1.00;;;0.93;;
3918;SDS011;1974;48.670;8.994;2023-06-05T05:38:57;1.87;;;1.20;;
3918;SDS011;1974;48.670;8.994;2023-06-05T05:41:26;1.47;;;1.37;;
3918;SDS011;1974;48.670;8.994;2023-06-05T05:43:52;1.43;;;1.10;;
3918;SDS011;1974;48.670;8.994;2023-06-05T05:46:19;2.80;;;1.30;;
3918;SDS011;1974;48.670;8.994;2023-06-05T05:48:46;1.23;;;0.80;;
3918;SDS011;1974;48.670;8.994;2023-06-05T05:51:12;1.50;;;1.20;;
3918;SDS011;1974;48.670;8.994;2023-06-05T05:53:39;1.10;;;1.00;;
3918;SDS011;1974;48.670;8.994;2023-06-05T05:56:06;2.70;;;1.57;;
3918;SDS011;1974;48.670;8.994;2023-06-05T05:58:34;1.20;;;0.90;;
3918;SDS011;1974;48.670;8.994;2023-06-05T06:01:01;1.17;;;1.07;;
3918;SDS011;1974;48.670;8.994;2023-06-05T06:03:28;2.10;;;1.00;;
3918;SDS011;1974;48.670;8.994;2023-06-05T06:05:54;1.87;;;1.67;;
3918;SDS011;1974;48.670;8.994;2023-06-05T06:08:22;1.20;;;1.07;;
3918;SDS011;1974;48.670;8.994;2023-06-05T06:10:50;1.80;;;1.33;;
3918;SDS011;1974;48.670;8.994;2023-06-05T06:13:16;4.47;;;1.00;;
3918;SDS011;1974;48.670;8.994;2023-06-05T06:15:45;1.37;;;1.00;;
3918;SDS011;1974;48.670;8.994;2023-06-05T06:18:11;1.37;;;1.03;;
3918;SDS011;1974;48.670;8.994;2023-06-05T06:20:38;1.90;;;1.13;;
3918;SDS011;1974;48.670;8.994;2023-06-05T06:23:05;1.63;;;1.43;;
3918;SDS011;1974;48.670;8.994;2023-06-05T06:25:32;2.20;;;1.33;;
3918;SDS011;1974;48.670;8.994;2023-06-05T06:27:59;4.03;;;1.53;;
3918;SDS011;1974;48.670;8.994;2023-06-05T06:30:26;0.90;;;0.87;;
3918;SDS011;1974;48.670;8.994;2023-06-05T06:32:55;3.53;;;1.30;;
3918;SDS011;1974;48.670;8.994;2023-06-05T06:35:23;3.80;;;1.53;;
3918;SDS011;1974;48.670;8.994;2023-06-05T06:37:52;2.97;;;1.30;;
3918;SDS011;1974;48.670;8.994;2023-06-05T06:40:19;4.07;;;1.60;;
3918;SDS011;1974;48.670;8.994;2023-06-05T06:42:46;1.23;;;1.00;;
3918;SDS011;1974;48.670;8.994;2023-06-05T06:45:13;1.33;;;1.23;;
3918;SDS011;1974;48.670;8.994;2023-06-05T06:47:40;1.40;;;1.30;;
3918;SDS011;1974;48.670;8.994;2023-06-05T06:50:09;1.47;;;1.37;;
3918;SDS011;1974;48.670;8.994;2023-06-05T06:52:36;1.23;;;1.10;;
3918;SDS011;1974;48.670;8.994;2023-06-05T06:55:03;2.20;;;1.53;;
3918;SDS011;1974;48.670;8.994;2023-06-05T06:57:31;1.30;;;1.20;;
3918;SDS011;1974;48.670;8.994;2023-06-05T06:59:57;3.07;;;1.60;;
3918;SDS011;1974;48.670;8.994;2023-06-05T07:02:24;1.60;;;1.17;;
3918;SDS011;1974;48.670;8.994;2023-06-05T07:04:51;1.63;;;1.10;;
3918;SDS011;1974;48.670;8.994;2023-06-05T07:07:21;2.07;;;1.33;;
3918;SDS011;1974;48.670;8.994;2023-06-05T07:09:48;1.33;;;1.20;;
3918;SDS011;1974;48.670;8.994;2023-06-05T07:12:16;1.03;;;1.00;;
3918;SDS011;1974;48.670;8.994;2023-06-05T07:14:44;5.00;;;1.50;;
3918;SDS011;1974;48.670;8.994;2023-06-05T07:17:11;1.20;;;1.10;;
3918;SDS011;1974;48.670;8.994;2023-06-05T07:19:38;1.37;;;1.17;;
3918;SDS011;1974;48.670;8.994;2023-06-05T07:22:06;0.93;;;0.83;;
3918;SDS011;1974;48.670;8.994;2023-06-05T07:24:34;3.00;;;1.07;;
3918;SDS011;1974;48.670;8.994;2023-06-05T07:27:03;2.93;;;1.53;;
3918;SDS011;1974;48.670;8.994;2023-06-05T07:29:31;1.40;;;1.30;;
3918;SDS011;1974;48.670;8.994;2023-06-05T07:31:58;3.20;;;1.20;;
3918;SDS011;1974;48.670;8.994;2023-06-05T07:34:26;0.90;;;0.90;;
3918;SDS011;1974;48.670;8.994;2023-06-05T07:36:53;1.55;;;1.45;;
3918;SDS011;1974;48.670;8.994;2023-06-05T07:39:20;1.73;;;1.63;;
3918;SDS011;1974;48.670;8.994;2023-06-05T07:41:49;5.22;;;1.35;;
3918;SDS011;1974;48.670;8.994;2023-06-05T07:44:16;1.33;;;1.30;;
3918;SDS011;1974;48.670;8.994;2023-06-05T07:46:45;2.17;;;1.80;;
3918;SDS011;1974;48.670;8.994;2023-06-05T07:49:12;2.72;;;1.60;;
3918;SDS011;1974;48.670;8.994;2023-06-05T07:51:40;1.58;;;1.48;;
3918;SDS011;1974;48.670;8.994;2023-06-05T07:54:09;1.33;;;1.23;;
3918;SDS011;1974;48.670;8.994;2023-06-05T07:56:36;1.00;;;0.90;;
3918;SDS011;1974;48.670;8.994;2023-06-05T07:59:06;1.45;;;1.00;;
3918;SDS011;1974;48.670;8.994;2023-06-05T08:01:34;1.88;;;1.25;;
3918;SDS011;1974;48.670;8.994;2023-06-05T08:04:02;1.40;;;1.30;;
3918;SDS011;1974;48.670;8.994;2023-06-05T08:06:29;1.25;;;1.00;;
3918;SDS011;1974;48.670;8.994;2023-06-05T08:08:56;1.10;;;1.10;;
3918;SDS011;1974;48.670;8.994;2023-06-05T08:11:24;1.30;;;1.20;;
3918;SDS011;1974;48.670;8.994;2023-06-05T08:13:51;1.63;;;1.20;;
3918;SDS011;1974;48.670;8.994;2023-06-05T08:16:19;1.20;;;1.20;;
3918;SDS011;1974;48.670;8.994;2023-06-05T08:18:46;2.17;;;1.65;;
3918;SDS011;1974;48.670;8.994;2023-06-05T08:21:13;1.15;;;1.15;;
3918;SDS011;1974;48.670;8.994;2023-06-05T08:23:40;2.08;;;1.73;;
3918;SDS011;1974;48.670;8.994;2023-06-05T08:26:07;1.50;;;1.40;;
3918;SDS011;1974;48.670;8.994;2023-06-05T08:28:37;1.58;;;1.48;;
3918;SDS011;1974;48.670;8.994;2023-06-05T08:31:04;2.63;;;1.95;;
3918;SDS011;1974;48.670;8.994;2023-06-05T08:33:33;1.52;;;1.42;;
3918;SDS011;1974;48.670;8.994;2023-06-05T08:35:59;1.90;;;1.70;;
3918;SDS011;1974;48.670;8.994;2023-06-05T08:38:28;2.13;;;2.03;;
3918;SDS011;1974;48.670;8.994;2023-06-05T08:40:55;1.95;;;1.85;;
3918;SDS011;1974;48.670;8.994;2023-06-05T08:43:27;1.65;;;1.55;;
3918;SDS011;1974;48.670;8.994;2023-06-05T08:45:54;1.90;;;1.80;;
3918;SDS011;1974;48.670;8.994;2023-06-05T08:48:22;2.00;;;1.80;;
3918;SDS011;1974;48.670;8.994;2023-06-05T08:50:51;2.08;;;1.98;;
3918;SDS011;1974;48.670;8.994;2023-06-05T08:53:20;3.90;;;2.38;;
3918;SDS011;1974;48.670;8.994;2023-06-05T08:55:52;2.05;;;1.95;;
3918;SDS011;1974;48.670;8.994;2023-06-05T08:58:20;3.50;;;3.15;;
3918;SDS011;1974;48.670;8.994;2023-06-05T09:00:48;2.13;;;2.03;;
3918;SDS011;1974;48.670;8.994;2023-06-05T09:03:16;2.50;;;2.22;;
3918;SDS011;1974;48.670;8.994;2023-06-05T09:05:45;2.05;;;1.95;;
3918;SDS011;1974;48.670;8.994;2023-06-05T09:08:13;1.80;;;1.65;;
3918;SDS011;1974;48.670;8.994;2023-06-05T09:10:40;2.50;;;2.28;;
3918;SDS011;1974;48.670;8.994;2023-06-05T09:13:07;2.83;;;2.42;;
3918;SDS011;1974;48.670;8.994;2023-06-05T09:15:34;3.33;;;3.13;;
3918;SDS011;1974;48.670;8.994;2023-06-05T09:18:04;2.70;;;2.50;;
3918;SDS011;1974;48.670;8.994;2023-06-05T09:20:34;3.28;;;2.35;;
3918;SDS011;1974;48.670;8.994;2023-06-05T09:23:02;2.70;;;2.50;;
3918;SDS011;1974;48.670;8.994;2023-06-05T09:28:17;2.65;;;2.45;;
3918;SDS011;1974;48.670;8.994;2023-06-05T09:30:54;3.30;;;3.00;;
3918;SDS011;1974;48.670;8.994;2023-06-05T09:33:22;2.78;;;2.00;;
3918;SDS011;1974;48.670;8.994;2023-06-05T09:36:00;2.95;;;2.40;;
3918;SDS011;1974;48.670;8.994;2023-06-05T09:38:28;3.85;;;3.05;;
3918;SDS011;1974;48.670;8.994;2023-06-05T09:41:02;3.25;;;2.20;;
3918;SDS011;1974;48.670;8.994;2023-06-05T09:43:29;2.65;;;2.45;;
3918;SDS011;1974;48.670;8.994;2023-06-05T09:45:56;2.67;;;2.15;;
3918;SDS011;1974;48.670;8.994;2023-06-05T09:48:23;3.13;;;2.17;;
3918;SDS011;1974;48.670;8.994;2023-06-05T09:50:52;3.63;;;2.65;;
3918;SDS011;1974;48.670;8.994;2023-06-05T09:53:19;2.45;;;2.30;;
3918;SDS011;1974;48.670;8.994;2023-06-05T09:55:47;3.92;;;2.05;;
3918;SDS011;1974;48.670;8.994;2023-06-05T09:58:15;3.28;;;2.67;;
3918;SDS011;1974;48.670;8.994;2023-06-05T10:00:45;3.83;;;2.08;;
3918;SDS011;1974;48.670;8.994;2023-06-05T10:03:13;4.50;;;2.88;;
3918;SDS011;1974;48.670;8.994;2023-06-05T10:05:43;3.28;;;2.08;;
3918;SDS011;1974;48.670;8.994;2023-06-05T10:08:12;2.55;;;2.20;;
3918;SDS011;1974;48.670;8.994;2023-06-05T10:10:40;2.50;;;2.38;;
3918;SDS011;1974;48.670;8.994;2023-06-05T10:13:08;2.05;;;1.80;;
3918;SDS011;1974;48.670;8.994;2023-06-05T10:15:37;3.63;;;2.72;;
3918;SDS011;1974;48.670;8.994;2023-06-05T10:18:05;3.58;;;2.55;;
3918;SDS011;1974;48.670;8.994;2023-06-05T10:20:33;4.55;;;1.98;;
3918;SDS011;1974;48.670;8.994;2023-06-05T10:23:02;5.47;;;3.28;;
3918;SDS011;1974;48.670;8.994;2023-06-05T10:25:31;2.25;;;1.92;;
3918;SDS011;1974;48.670;8.994;2023-06-05T10:28:08;2.63;;;2.42;;
3918;SDS011;1974;48.670;8.994;2023-06-05T10:31:11;2.17;;;1.92;;
3918;SDS011;1974;48.670;8.994;2023-06-05T10:37:01;2.30;;;2.10;;
3918;SDS011;1974;48.670;8.994;2023-06-05T10:39:53;3.15;;;2.33;;
3918;SDS011;1974;48.670;8.994;2023-06-05T10:42:24;4.18;;;2.88;;
3918;SDS011;1974;48.670;8.994;2023-06-05T10:44:52;3.78;;;2.50;;
3918;SDS011;1974;48.670;8.994;2023-06-05T10:50:22;2.30;;;2.05;;
3918;SDS011;1974;48.670;8.994;2023-06-05T10:52:54;3.30;;;2.75;;
3918;SDS011;1974;48.670;8.994;2023-06-05T10:55:23;3.03;;;2.53;;
3918;SDS011;1974;48.670;8.994;2023-06-05T10:58:03;2.15;;;1.92;;
3918;SDS011;1974;48.670;8.994;2023-06-05T11:01:14;2.08;;;1.98;;
3918;SDS011;1974;48.670;8.994;2023-06-05T11:03:54;2.33;;;2.22;;
3918;SDS011;1974;48.670;8.994;2023-06-05T11:06:22;4.22;;;3.22;;
3918;SDS011;1974;48.670;8.994;2023-06-05T11:11:59;3.03;;;2.75;;
3918;SDS011;1974;48.670;8.994;2023-06-05T11:14:45;2.47;;;2.28;;
3918;SDS011;1974;48.670;8.994;2023-06-05T11:17:25;3.53;;;2.92;;
3918;SDS011;1974;48.670;8.994;2023-06-05T11:19:54;3.05;;;2.25;;
3918;SDS011;1974;48.670;8.994;2023-06-05T11:22:21;3.60;;;1.95;;
3918;SDS011;1974;48.670;8.994;2023-06-05T11:27:50;3.83;;;2.80;;
3918;SDS011;1974;48.670;8.994;2023-06-05T11:30:18;4.07;;;2.53;;
3918;SDS011;1974;48.670;8.994;2023-06-05T11:32:46;2.28;;;2.08;;
3918;SDS011;1974;48.670;8.994;2023-06-05T11:35:14;2.20;;;1.80;;
3918;SDS011;1974;48.670;8.994;2023-06-05T11:37:42;2.45;;;2.25;;
3918;SDS011;1974;48.670;8.994;2023-06-05T11:40:09;2.55;;;2.10;;
3918;SDS011;1974;48.670;8.994;2023-06-05T11:42:36;3.08;;;2.78;;
3918;SDS011;1974;48.670;8.994;2023-06-05T11:45:09;1.73;;;1.63;;
3918;SDS011;1974;48.670;8.994;2023-06-05T11:47:36;3.20;;;2.15;;
3918;SDS011;1974;48.670;8.994;2023-06-05T11:50:06;1.95;;;1.85;;
3918;SDS011;1974;48.670;8.994;2023-06-05T11:52:35;2.28;;;2.10;;
3918;SDS011;1974;48.670;8.994;2023-06-05T11:55:12;1.92;;;1.83;;
3918;SDS011;1974;48.670;8.994;2023-06-05T11:57:40;2.08;;;1.85;;
3918;SDS011;1974;48.670;8.994;2023-06-05T12:00:08;3.15;;;2.13;;
3918;SDS011;1974;48.670;8.994;2023-06-05T12:02:36;2.30;;;1.75;;
3918;SDS011;1974;48.670;8.994;2023-06-05T12:05:04;1.83;;;1.65;;
3918;SDS011;1974;48.670;8.994;2023-06-05T12:07:32;1.88;;;1.77;;
3918;SDS011;1974;48.670;8.994;2023-06-05T12:10:03;1.98;;;1.88;;
3918;SDS011;1974;48.670;8.994;2023-06-05T12:12:31;2.13;;;2.03;;
3918;SDS011;1974;48.670;8.994;2023-06-05T12:15:12;2.05;;;1.88;;
3918;SDS011;1974;48.670;8.994;2023-06-05T12:17:39;3.50;;;1.92;;
3918;SDS011;1974;48.670;8.994;2023-06-05T12:20:07;1.70;;;1.60;;
3918;SDS011;1974;48.670;8.994;2023-06-05T12:22:34;1.83;;;1.67;;
3918;SDS011;1974;48.670;8.994;2023-06-05T12:25:15;3.53;;;2.03;;
3918;SDS011;1974;48.670;8.994;2023-06-05T12:27:43;1.73;;;1.60;;
3918;SDS011;1974;48.670;8.994;2023-06-05T12:30:10;2.72;;;2.03;;
3918;SDS011;1974;48.670;8.994;2023-06-05T12:32:39;1.80;;;1.70;;
3918;SDS011;1974;48.670;8.994;2023-06-05T12:35:19;3.00;;;2.10;;
3918;SDS011;1974;48.670;8.994;2023-06-05T12:37:48;2.33;;;1.90;;
3918;SDS011;1974;48.670;8.994;2023-06-05T12:40:17;1.15;;;1.10;;
3918;SDS011;1974;48.670;8.994;2023-06-05T12:42:46;1.70;;;1.60;;
3918;SDS011;1974;48.670;8.994;2023-06-05T12:45:14;1.80;;;1.70;;
3918;SDS011;1974;48.670;8.994;2023-06-05T12:47:41;1.67;;;1.50;;
3918;SDS011;1974;48.670;8.994;2023-06-05T12:50:10;2.97;;;2.17;;
3918;SDS011;1974;48.670;8.994;2023-06-05T12:52:38;1.75;;;1.55;;
3918;SDS011;1974;48.670;8.994;2023-06-05T12:55:05;2.72;;;2.53;;
3918;SDS011;1974;48.670;8.994;2023-06-05T12:57:34;1.65;;;1.52;;
3918;SDS011;1974;48.670;8.994;2023-06-05T13:00:02;1.92;;;1.80;;
3918;SDS011;1974;48.670;8.994;2023-06-05T13:02:36;2.83;;;2.17;;
3918;SDS011;1974;48.670;8.994;2023-06-05T13:05:03;2.85;;;1.95;;
3918;SDS011;1974;48.670;8.994;2023-06-05T13:07:31;1.83;;;1.40;;
3918;SDS011;1974;48.670;8.994;2023-06-05T13:09:58;1.88;;;1.33;;
3918;SDS011;1974;48.670;8.994;2023-06-05T13:12:24;2.58;;;1.80;;
3918;SDS011;1974;48.670;8.994;2023-06-05T13:14:52;1.23;;;1.13;;
3918;SDS011;1974;48.670;8.994;2023-06-05T13:17:19;2.55;;;1.98;;
3918;SDS011;1974;48.670;8.994;2023-06-05T13:19:48;2.65;;;2.00;;
3918;SDS011;1974;48.670;8.994;2023-06-05T13:22:14;3.17;;;1.90;;
3918;SDS011;1974;48.670;8.994;2023-06-05T13:24:42;1.83;;;1.70;;
3918;SDS011;1974;48.670;8.994;2023-06-05T13:27:08;1.85;;;1.60;;
3918;SDS011;1974;48.670;8.994;2023-06-05T13:29:35;1.92;;;1.80;;
3918;SDS011;1974;48.670;8.994;2023-06-05T13:32:04;4.45;;;1.58;;
3918;SDS011;1974;48.670;8.994;2023-06-05T13:34:31;3.13;;;1.73;;
3918;SDS011;1974;48.670;8.994;2023-06-05T13:36:58;4.82;;;1.80;;
3918;SDS011;1974;48.670;8.994;2023-06-05T13:39:25;1.55;;;1.45;;
3918;SDS011;1974;48.670;8.994;2023-06-05T13:41:52;2.13;;;2.03;;
3918;SDS011;1974;48.670;8.994;2023-06-05T13:44:18;2.00;;;1.90;;
3918;SDS011;1974;48.670;8.994;2023-06-05T13:46:45;2.35;;;2.13;;
3918;SDS011;1974;48.670;8.994;2023-06-05T13:49:13;2.28;;;1.88;;
3918;SDS011;1974;48.670;8.994;2023-06-05T13:51:41;4.35;;;2.55;;
3918;SDS011;1974;48.670;8.994;2023-06-05T13:54:07;2.45;;;1.38;;
3918;SDS011;1974;48.670;8.994;2023-06-05T13:56:36;1.75;;;1.48;;
3918;SDS011;1974;48.670;8.994;2023-06-05T13:59:03;1.38;;;1.27;;
3918;SDS011;1974;48.670;8.994;2023-06-05T14:01:30;2.40;;;1.80;;
3918;SDS011;1974;48.670;8.994;2023-06-05T14:03:57;2.55;;;2.13;;
3918;SDS011;1974;48.670;8.994;2023-06-05T14:06:25;4.07;;;1.50;;
3918;SDS011;1974;48.670;8.994;2023-06-05T14:08:51;1.60;;;1.50;;
3918;SDS011;1974;48.670;8.994;2023-06-05T14:11:18;5.17;;;2.60;;
3918;SDS011;1974;48.670;8.994;2023-06-05T14:13:46;2.07;;;1.63;;
3918;SDS011;1974;48.670;8.994;2023-06-05T14:16:13;1.53;;;1.43;;
3918;SDS011;1974;48.670;8.994;2023-06-05T14:18:42;5.63;;;1.80;;
3918;SDS011;1974;48.670;8.994;2023-06-05T14:21:09;2.53;;;1.53;;
3918;SDS011;1974;48.670;8.994;2023-06-05T14:23:37;1.90;;;1.80;;
3918;SDS011;1974;48.670;8.994;2023-06-05T14:26:05;2.37;;;2.17;;
3918;SDS011;1974;48.670;8.994;2023-06-05T14:28:46;3.27;;;1.57;;
3918;SDS011;1974;48.670;8.994;2023-06-05T14:31:14;5.10;;;2.63;;
3918;SDS011;1974;48.670;8.994;2023-06-05T14:33:43;2.83;;;1.83;;
3918;SDS011;1974;48.670;8.994;2023-06-05T14:36:10;4.40;;;2.03;;
3918;SDS011;1974;48.670;8.994;2023-06-05T14:38:38;5.43;;;2.20;;
3918;SDS011;1974;48.670;8.994;2023-06-05T14:41:05;2.58;;;1.67;;
3918;SDS011;1974;48.670;8.994;2023-06-05T14:43:31;2.80;;;2.30;;
3918;SDS011;1974;48.670;8.994;2023-06-05T14:45:58;2.88;;;1.98;;
3918;SDS011;1974;48.670;8.994;2023-06-05T14:48:26;2.63;;;1.70;;
3918;SDS011;1974;48.670;8.994;2023-06-05T14:50:52;7.00;;;1.87;;
3918;SDS011;1974;48.670;8.994;2023-06-05T14:53:21;2.20;;;2.00;;
3918;SDS011;1974;48.670;8.994;2023-06-05T14:55:49;2.17;;;1.47;;
3918;SDS011;1974;48.670;8.994;2023-06-05T14:58:16;2.95;;;1.77;;
3918;SDS011;1974;48.670;8.994;2023-06-05T15:00:43;5.47;;;2.40;;
3918;SDS011;1974;48.670;8.994;2023-06-05T15:03:11;3.28;;;1.70;;
3918;SDS011;1974;48.670;8.994;2023-06-05T15:05:38;1.90;;;1.80;;
3918;SDS011;1974;48.670;8.994;2023-06-05T15:08:05;2.43;;;1.90;;
3918;SDS011;1974;48.670;8.994;2023-06-05T15:10:31;3.73;;;1.97;;
3918;SDS011;1974;48.670;8.994;2023-06-05T15:13:00;2.90;;;2.30;;
3918;SDS011;1974;48.670;8.994;2023-06-05T15:15:27;2.17;;;1.97;;
3918;SDS011;1974;48.670;8.994;2023-06-05T15:17:54;2.43;;;2.00;;
3918;SDS011;1974;48.670;8.994;2023-06-05T15:20:21;1.85;;;1.75;;
3918;SDS011;1974;48.670;8.994;2023-06-05T15:22:48;1.87;;;1.67;;
3918;SDS011;1974;48.670;8.994;2023-06-05T15:25:15;2.50;;;1.83;;
3918;SDS011;1974;48.670;8.994;2023-06-05T15:27:42;2.50;;;1.90;;
3918;SDS011;1974;48.670;8.994;2023-06-05T15:30:11;1.87;;;1.77;;
3918;SDS011;1974;48.670;8.994;2023-06-05T15:32:37;4.00;;;1.90;;
3918;SDS011;1974;48.670;8.994;2023-06-05T15:35:04;1.97;;;1.73;;
3918;SDS011;1974;48.670;8.994;2023-06-05T15:37:31;2.60;;;2.13;;